Time;durP1;ratioP1;P1;durP2;ratioP2;P2;SDS_P1;SDS_P2;PMS_P1;PMS_P2;Temp;Humidity;BMP_temperature;BMP_pressure;BME280_temperature;BME280_humidity;BME280_pressure;Samples;Min_cycle;Max_cycle;Signal;HPM_P1;HPM_P2
2023/06/18 00:00:43;;;;;;;7.13;5.57;;;17.60;55.00;;;;;;5026667;28;20033;-65
2023/06/18 00:03:09;;;;;;;5.88;5.28;;;17.60;55.10;;;;;;5035431;28;20037;-65
2023/06/18 00:05:35;;;;;;;6.00;5.30;;;17.60;55.80;;;;;;5032068;28;20056;-65
2023/06/18 00:08:00;;;;;;;5.90;5.10;;;17.50;55.20;;;;;;5027597;28;20060;-65
2023/06/18 00:10:26;;;;;;;5.60;5.10;;;17.50;55.10;;;;;;5034176;28;20111;-66
2023/06/18 00:12:51;;;;;;;6.90;5.18;;;17.40;55.20;;;;;;5033766;28;20581;-65
2023/06/18 00:15:18;;;;;;;6.25;5.18;;;17.40;55.30;;;;;;5035343;28;20044;-65
2023/06/18 00:17:45;;;;;;;6.40;5.47;;;17.40;55.40;;;;;;5028050;28;20033;-65
2023/06/18 00:20:10;;;;;;;5.47;4.97;;;17.50;55.40;;;;;;5029082;28;20245;-65
2023/06/18 00:22:38;;;;;;;5.70;5.05;;;17.50;55.40;;;;;;5024158;28;20033;-65
2023/06/18 00:25:05;;;;;;;6.07;4.95;;;17.50;55.40;;;;;;5026938;28;20132;-65
2023/06/18 00:27:31;;;;;;;5.93;5.07;;;17.40;55.40;;;;;;5026441;28;20033;-65
2023/06/18 00:29:57;;;;;;;5.47;4.97;;;17.40;55.30;;;;;;5026946;28;20033;-65
2023/06/18 00:32:22;;;;;;;8.23;5.15;;;17.30;55.40;;;;;;5026167;28;20067;-65
2023/06/18 00:34:53;;;;;;;6.75;5.50;;;17.30;55.60;;;;;;5029904;28;20519;-65
2023/06/18 00:37:21;;;;;;;6.53;5.38;;;17.20;55.60;;;;;;5025299;28;20037;-65
2023/06/18 00:39:47;;;;;;;6.57;5.20;;;17.20;55.90;;;;;;5026766;28;20103;-64
2023/06/18 00:42:13;;;;;;;5.80;5.20;;;17.10;56.00;;;;;;5025480;28;20036;-64
2023/06/18 00:44:40;;;;;;;5.65;5.07;;;17.00;56.00;;;;;;5026474;28;20099;-65
2023/06/18 00:47:08;;;;;;;7.15;5.30;;;17.00;56.20;;;;;;5026436;28;20037;-65
2023/06/18 00:49:34;;;;;;;5.85;5.25;;;17.00;56.30;;;;;;5027320;28;20451;-64
2023/06/18 00:52:00;;;;;;;5.95;5.32;;;17.00;56.40;;;;;;5025571;28;20116;-65
2023/06/18 00:54:31;;;;;;;6.55;5.50;;;16.90;56.40;;;;;;5026797;28;20038;-65
2023/06/18 00:56:59;;;;;;;6.15;5.55;;;16.90;56.60;;;;;;5026945;28;20072;-65
2023/06/18 00:59:27;;;;;;;6.28;5.68;;;16.80;56.50;;;;;;5026690;28;20033;-64
2023/06/18 01:01:54;;;;;;;5.57;5.05;;;16.80;56.80;;;;;;5020227;28;20374;-65
2023/06/18 01:04:22;;;;;;;6.93;5.35;;;16.70;56.90;;;;;;5022927;28;20056;-65
2023/06/18 01:06:52;;;;;;;7.93;5.55;;;16.70;57.10;;;;;;5027859;28;20072;-65
2023/06/18 01:09:21;;;;;;;5.78;5.18;;;16.70;57.40;;;;;;5028292;28;20052;-65
2023/06/18 01:11:53;;;;;;;7.18;5.43;;;16.60;57.30;;;;;;5032106;28;20025;-65
2023/06/18 01:14:27;;;;;;;7.57;5.40;;;16.60;57.40;;;;;;5038071;28;20418;-65
2023/06/18 01:16:58;;;;;;;7.38;5.60;;;16.60;57.60;;;;;;5033403;28;20042;-65
2023/06/18 01:19:38;;;;;;;7.68;5.95;;;16.60;57.60;;;;;;5028637;28;20033;-65
2023/06/18 01:22:33;;;;;;;5.70;5.15;;;16.60;57.80;;;;;;5019530;28;20127;-65
2023/06/18 01:25:03;;;;;;;5.93;5.20;;;16.60;57.60;;;;;;5018130;28;20060;-66
2023/06/18 01:27:33;;;;;;;6.45;5.32;;;16.60;57.50;;;;;;5028469;28;20165;-65
2023/06/18 01:30:00;;;;;;;7.82;5.18;;;16.50;57.60;;;;;;5028344;28;20456;-65
2023/06/18 01:32:27;;;;;;;5.95;5.35;;;16.50;57.70;;;;;;5028643;28;20040;-65
2023/06/18 01:34:55;;;;;;;6.25;5.50;;;16.50;57.80;;;;;;5027858;28;20052;-65
2023/06/18 01:37:30;;;;;;;6.40;5.40;;;16.40;57.90;;;;;;5031308;28;20525;-65
2023/06/18 01:40:10;;;;;;;8.27;5.82;;;16.40;58.30;;;;;;5026118;28;20091;-65
2023/06/18 01:42:41;;;;;;;6.75;5.90;;;16.40;58.50;;;;;;5030259;28;20040;-65
2023/06/18 01:45:13;;;;;;;6.10;5.38;;;16.30;58.00;;;;;;5026992;28;20531;-65
2023/06/18 01:47:42;;;;;;;5.97;5.38;;;16.30;58.40;;;;;;5031402;28;20504;-65
2023/06/18 01:50:10;;;;;;;6.68;5.47;;;16.20;58.30;;;;;;5031724;28;20029;-65
2023/06/18 01:52:42;;;;;;;5.82;5.30;;;16.20;58.30;;;;;;5032716;28;20142;-65
2023/06/18 01:55:10;;;;;;;5.85;5.30;;;16.20;58.50;;;;;;5030281;28;20155;-65
2023/06/18 01:57:36;;;;;;;5.72;5.13;;;16.20;58.30;;;;;;5033150;28;20025;-65
2023/06/18 02:00:04;;;;;;;6.57;5.93;;;16.20;58.20;;;;;;5032262;28;20043;-65
2023/06/18 02:02:29;;;;;;;6.40;5.80;;;16.20;58.30;;;;;;5030325;28;20511;-65
2023/06/18 02:04:56;;;;;;;6.95;5.50;;;16.20;58.30;;;;;;5028425;28;20111;-65
2023/06/18 02:07:21;;;;;;;6.15;5.55;;;16.20;58.30;;;;;;5028699;28;20041;-65
2023/06/18 02:09:47;;;;;;;6.50;5.72;;;16.20;58.40;;;;;;5030870;28;20041;-65
2023/06/18 02:12:12;;;;;;;6.55;5.28;;;16.10;58.50;;;;;;5026111;28;20041;-65
2023/06/18 02:14:38;;;;;;;7.45;5.53;;;16.10;58.60;;;;;;5027191;28;20526;-65
2023/06/18 02:17:04;;;;;;;8.30;5.80;;;16.00;58.70;;;;;;5024659;28;20044;-65
2023/06/18 02:19:30;;;;;;;7.10;5.40;;;15.90;58.90;;;;;;5031175;28;20033;-65
2023/06/18 02:21:55;;;;;;;7.55;5.95;;;15.80;59.00;;;;;;5032658;28;20037;-65
2023/06/18 02:24:21;;;;;;;6.57;5.47;;;15.80;59.20;;;;;;5032716;28;20056;-65
2023/06/18 02:26:46;;;;;;;6.65;5.35;;;15.70;59.30;;;;;;5031425;28;20045;-65
2023/06/18 02:29:12;;;;;;;7.05;5.85;;;15.70;59.40;;;;;;5029535;28;20048;-65
2023/06/18 02:31:38;;;;;;;6.15;5.55;;;15.60;59.50;;;;;;5026721;28;20413;-65
2023/06/18 02:34:03;;;;;;;8.25;5.68;;;15.60;59.60;;;;;;5031426;28;20136;-65
2023/06/18 02:36:29;;;;;;;6.22;5.60;;;15.50;59.70;;;;;;5026529;28;20106;-65
2023/06/18 02:38:55;;;;;;;6.50;5.80;;;15.50;59.80;;;;;;5030015;28;20085;-65
2023/06/18 02:41:21;;;;;;;5.95;5.35;;;15.40;59.90;;;;;;5027747;28;20041;-65
2023/06/18 02:43:49;;;;;;;7.68;5.40;;;15.40;60.00;;;;;;5030910;28;20034;-65
2023/06/18 02:46:16;;;;;;;6.22;5.30;;;15.40;60.00;;;;;;5026482;28;20033;-66
2023/06/18 02:48:41;;;;;;;6.10;5.38;;;15.30;60.10;;;;;;5032957;28;20454;-65
2023/06/18 02:51:07;;;;;;;6.22;5.63;;;15.30;60.10;;;;;;5032835;28;20061;-65
2023/06/18 02:53:33;;;;;;;7.15;5.88;;;15.30;60.20;;;;;;5034666;28;20393;-65
2023/06/18 02:55:58;;;;;;;5.95;5.35;;;15.20;60.40;;;;;;5032984;28;20033;-65
2023/06/18 02:58:35;;;;;;;6.00;5.35;;;15.20;60.40;;;;;;5035206;28;20057;-65
2023/06/18 03:01:02;;;;;;;6.32;5.47;;;15.20;60.50;;;;;;5032904;28;20035;-65
2023/06/18 03:03:28;;;;;;;6.72;5.30;;;15.20;60.40;;;;;;5027788;28;20034;-65
2023/06/18 03:05:54;;;;;;;6.93;5.38;;;15.10;60.50;;;;;;5024574;28;20653;-65
2023/06/18 03:08:20;;;;;;;6.53;5.85;;;15.10;60.60;;;;;;5031788;28;20110;-65
2023/06/18 03:10:45;;;;;;;6.47;5.70;;;15.10;60.80;;;;;;5028954;28;20117;-65
2023/06/18 03:13:12;;;;;;;6.60;5.90;;;15.10;60.80;;;;;;5031656;28;20026;-65
2023/06/18 03:15:37;;;;;;;9.38;6.22;;;15.10;60.80;;;;;;5028738;28;20240;-65
2023/06/18 03:18:03;;;;;;;8.07;6.15;;;15.00;60.80;;;;;;5029865;28;20044;-66
2023/06/18 03:20:29;;;;;;;6.57;5.25;;;15.00;60.90;;;;;;5030986;28;20029;-65
2023/06/18 03:22:55;;;;;;;6.25;5.35;;;14.90;61.00;;;;;;5031580;28;20130;-64
2023/06/18 03:25:21;;;;;;;7.97;5.85;;;14.90;61.10;;;;;;5035045;28;20222;-65
2023/06/18 03:27:47;;;;;;;7.22;5.75;;;14.90;61.30;;;;;;5030603;28;20037;-65
2023/06/18 03:30:14;;;;;;;13.30;5.90;;;14.90;61.50;;;;;;5028210;28;20029;-65
2023/06/18 03:32:40;;;;;;;6.00;5.40;;;15.00;61.30;;;;;;5025334;28;20029;-64
2023/06/18 03:35:06;;;;;;;7.57;5.60;;;15.00;61.40;;;;;;5031920;28;20045;-65
2023/06/18 03:37:31;;;;;;;6.75;5.70;;;15.10;61.60;;;;;;5028989;28;20565;-65
2023/06/18 03:39:58;;;;;;;7.05;5.65;;;15.10;61.50;;;;;;5029867;28;20118;-65
2023/06/18 03:42:24;;;;;;;6.82;6.13;;;15.10;61.50;;;;;;5031627;28;20037;-65
2023/06/18 03:44:50;;;;;;;8.63;6.13;;;15.10;61.50;;;;;;5029346;28;20041;-65
2023/06/18 03:47:17;;;;;;;6.75;6.05;;;15.10;61.50;;;;;;5026845;28;20402;-65
2023/06/18 03:49:43;;;;;;;6.85;5.80;;;15.10;61.60;;;;;;5028017;28;20447;-65
2023/06/18 03:52:08;;;;;;;7.63;6.07;;;15.10;61.70;;;;;;5030095;28;20044;-65
2023/06/18 03:54:35;;;;;;;6.65;5.95;;;15.10;62.00;;;;;;5027990;28;20076;-65
2023/06/18 03:57:01;;;;;;;6.53;5.93;;;15.10;62.00;;;;;;5027178;28;20125;-65
2023/06/18 03:59:28;;;;;;;6.65;5.90;;;15.10;62.00;;;;;;5031249;28;20120;-65
2023/06/18 04:01:54;;;;;;;7.00;6.15;;;15.10;62.00;;;;;;5030964;28;20047;-65
2023/06/18 04:04:20;;;;;;;6.93;5.95;;;15.10;62.00;;;;;;5024274;28;20249;-65
2023/06/18 04:06:46;;;;;;;7.65;6.38;;;15.10;62.00;;;;;;5025259;28;20033;-65
2023/06/18 04:09:11;;;;;;;6.65;6.00;;;15.10;62.00;;;;;;5027966;28;20083;-65
2023/06/18 04:11:45;;;;;;;7.50;6.60;;;15.00;63.10;;;;;;5024285;28;20401;-65
2023/06/18 04:14:10;;;;;;;6.15;5.55;;;15.10;62.60;;;;;;5026480;28;20429;-65
2023/06/18 04:16:36;;;;;;;6.35;5.75;;;15.10;62.50;;;;;;5025117;28;20033;-65
2023/06/18 04:19:02;;;;;;;7.13;6.00;;;15.10;62.40;;;;;;5028561;28;20028;-65
2023/06/18 04:21:27;;;;;;;6.93;5.78;;;15.20;62.40;;;;;;5028213;28;20068;-65
2023/06/18 04:23:53;;;;;;;7.40;5.95;;;15.20;62.30;;;;;;5031569;28;20037;-65
2023/06/18 04:26:19;;;;;;;7.78;6.07;;;15.30;62.20;;;;;;5030954;28;20046;-65
2023/06/18 04:28:45;;;;;;;6.78;6.10;;;15.30;62.10;;;;;;5024753;28;20046;-65
2023/06/18 04:31:11;;;;;;;8.85;6.60;;;15.50;62.20;;;;;;5026230;28;20436;-65
2023/06/18 04:33:36;;;;;;;6.82;5.85;;;15.50;62.00;;;;;;5025878;28;20054;-65
2023/06/18 04:36:02;;;;;;;7.40;5.93;;;15.60;62.20;;;;;;5026420;28;20053;-65
2023/06/18 04:38:28;;;;;;;6.38;5.70;;;15.60;62.20;;;;;;5029196;28;20044;-64
2023/06/18 04:40:53;;;;;;;7.20;6.25;;;15.60;62.00;;;;;;5030488;28;20509;-65
2023/06/18 04:43:19;;;;;;;8.75;6.50;;;15.70;62.10;;;;;;5030845;28;20057;-65
2023/06/18 04:45:48;;;;;;;8.48;6.53;;;15.70;62.00;;;;;;5025545;28;20063;-65
2023/06/18 04:48:14;;;;;;;6.63;5.93;;;15.80;62.20;;;;;;5034465;28;20065;-65
2023/06/18 04:50:40;;;;;;;7.43;6.18;;;15.80;62.00;;;;;;5034699;28;20106;-65
2023/06/18 04:53:06;;;;;;;7.65;6.25;;;15.90;62.00;;;;;;5035679;28;20048;-65
2023/06/18 04:55:31;;;;;;;7.95;6.50;;;15.90;62.00;;;;;;5036585;28;20064;-65
2023/06/18 04:57:57;;;;;;;7.40;6.45;;;15.90;61.80;;;;;;5036965;28;20051;-65
2023/06/18 05:00:23;;;;;;;8.10;6.93;;;16.00;61.70;;;;;;5032282;28;20445;-65
2023/06/18 05:02:49;;;;;;;7.28;6.30;;;16.00;61.60;;;;;;5031522;28;20068;-65
2023/06/18 05:05:17;;;;;;;7.25;6.25;;;16.00;61.70;;;;;;5032698;28;20037;-65
2023/06/18 05:07:43;;;;;;;6.60;5.95;;;16.10;61.90;;;;;;5033197;28;20045;-65
2023/06/18 05:10:10;;;;;;;7.28;6.50;;;16.10;62.20;;;;;;5030907;28;20365;-65
2023/06/18 05:12:35;;;;;;;6.85;6.20;;;16.20;62.50;;;;;;5029201;28;20041;-65
2023/06/18 05:15:01;;;;;;;8.88;6.93;;;16.30;62.20;;;;;;5031374;28;20045;-65
2023/06/18 05:17:27;;;;;;;7.72;6.95;;;16.40;61.90;;;;;;5028465;28;20033;-65
2023/06/18 05:19:53;;;;;;;10.02;7.63;;;16.40;61.70;;;;;;5027112;28;20036;-65
2023/06/18 05:22:18;;;;;;;9.68;7.60;;;16.50;61.50;;;;;;5026564;28;20030;-65
2023/06/18 05:24:44;;;;;;;7.68;6.90;;;16.60;61.40;;;;;;5035201;28;20029;-65
2023/06/18 05:27:10;;;;;;;8.20;7.40;;;16.60;61.30;;;;;;5033455;28;20040;-65
2023/06/18 05:29:36;;;;;;;7.78;6.97;;;16.70;61.40;;;;;;5036028;28;20504;-65
2023/06/18 05:32:03;;;;;;;9.65;7.07;;;16.70;61.70;;;;;;5035615;28;20395;-65
2023/06/18 05:34:29;;;;;;;10.73;6.95;;;16.80;61.80;;;;;;5036496;28;20041;-66
2023/06/18 05:36:54;;;;;;;10.15;7.47;;;16.80;61.50;;;;;;5033701;28;20653;-65
2023/06/18 05:39:20;;;;;;;8.02;7.03;;;16.90;61.20;;;;;;5036222;28;20120;-65
2023/06/18 05:41:45;;;;;;;10.10;7.72;;;16.90;61.00;;;;;;5035119;28;20033;-65
2023/06/18 05:44:11;;;;;;;8.35;7.30;;;17.10;61.00;;;;;;5032954;28;20033;-65
2023/06/18 05:46:36;;;;;;;8.07;7.28;;;17.20;60.60;;;;;;5032332;28;20132;-65
2023/06/18 05:49:02;;;;;;;8.73;7.82;;;17.30;60.40;;;;;;5036374;28;20045;-64
2023/06/18 05:51:28;;;;;;;8.77;7.97;;;17.40;60.00;;;;;;5034864;28;20107;-65
2023/06/18 05:53:53;;;;;;;9.05;8.00;;;17.50;59.70;;;;;;5034772;28;20524;-65
2023/06/18 05:56:19;;;;;;;9.35;8.10;;;17.50;59.50;;;;;;5033820;28;20029;-65
2023/06/18 05:58:45;;;;;;;8.40;7.53;;;17.60;59.30;;;;;;5035760;28;20053;-65
2023/06/18 06:01:10;;;;;;;8.63;7.72;;;17.70;59.30;;;;;;5034103;28;20397;-64
2023/06/18 06:03:36;;;;;;;8.43;7.63;;;17.80;59.10;;;;;;5034663;28;20032;-66
2023/06/18 06:06:02;;;;;;;9.23;8.13;;;17.90;59.00;;;;;;5027363;28;20548;-64
2023/06/18 06:08:28;;;;;;;10.57;7.63;;;18.00;58.80;;;;;;5029993;28;20160;-64
2023/06/18 06:10:54;;;;;;;9.02;7.97;;;18.10;59.40;;;;;;5028999;28;20160;-64
2023/06/18 06:13:19;;;;;;;8.93;7.63;;;18.20;58.90;;;;;;5035358;28;20520;-64
2023/06/18 06:15:45;;;;;;;8.63;7.72;;;18.30;59.00;;;;;;5032697;28;20033;-64
2023/06/18 06:18:11;;;;;;;9.43;7.50;;;18.40;59.00;;;;;;5031509;28;20112;-65
2023/06/18 06:20:36;;;;;;;8.65;7.75;;;18.60;59.10;;;;;;5034901;28;20029;-64
2023/06/18 06:23:02;;;;;;;9.15;7.53;;;18.60;59.10;;;;;;5033512;28;20037;-64
2023/06/18 06:25:28;;;;;;;9.02;7.22;;;18.70;59.00;;;;;;5034944;28;20072;-64
2023/06/18 06:27:54;;;;;;;9.57;7.88;;;18.80;58.90;;;;;;5033450;28;20067;-65
2023/06/18 06:30:19;;;;;;;8.48;7.55;;;18.90;58.80;;;;;;5028890;28;20033;-65
2023/06/18 06:32:45;;;;;;;10.02;7.40;;;19.00;58.70;;;;;;5033637;28;20102;-65
2023/06/18 06:35:11;;;;;;;9.20;7.70;;;19.00;58.60;;;;;;5034454;28;20049;-65
2023/06/18 06:37:36;;;;;;;8.98;7.18;;;19.20;58.50;;;;;;5034006;28;20504;-65
2023/06/18 06:40:03;;;;;;;9.68;7.53;;;19.20;58.40;;;;;;5034977;28;20523;-65
2023/06/18 06:42:29;;;;;;;9.27;7.75;;;19.30;58.40;;;;;;5019351;28;20077;-64
2023/06/18 06:44:55;;;;;;;9.98;8.35;;;19.40;58.30;;;;;;5027313;28;20823;-64
2023/06/18 06:47:20;;;;;;;10.15;7.78;;;19.50;58.30;;;;;;5028649;28;20033;-65
2023/06/18 06:49:46;;;;;;;9.82;7.25;;;19.50;58.40;;;;;;5035717;28;20036;-64
2023/06/18 06:52:12;;;;;;;15.30;8.13;;;19.70;58.40;;;;;;5036150;28;20107;-65
2023/06/18 06:54:37;;;;;;;8.90;7.68;;;19.80;58.60;;;;;;5035994;28;20444;-65
2023/06/18 06:57:03;;;;;;;9.68;7.78;;;19.80;58.40;;;;;;5036631;28;20561;-65
2023/06/18 06:59:30;;;;;;;9.88;8.07;;;20.00;58.10;;;;;;5036969;28;20025;-64
2023/06/18 07:01:56;;;;;;;8.40;7.60;;;20.00;57.90;;;;;;5025840;28;20038;-65
2023/06/18 07:04:22;;;;;;;10.00;7.75;;;20.10;57.80;;;;;;5025414;28;20047;-64
2023/06/18 07:06:48;;;;;;;9.50;7.95;;;20.20;57.60;;;;;;5027365;28;20042;-64
2023/06/18 07:09:14;;;;;;;8.75;7.90;;;20.30;57.60;;;;;;5026875;28;20579;-64
2023/06/18 07:11:40;;;;;;;8.48;7.68;;;20.40;57.30;;;;;;5023788;28;20116;-65
2023/06/18 07:14:06;;;;;;;8.13;7.32;;;20.50;57.20;;;;;;5030038;28;20111;-65
2023/06/18 07:16:32;;;;;;;8.82;7.93;;;20.60;57.00;;;;;;5035198;28;20037;-64
2023/06/18 07:18:58;;;;;;;9.57;7.50;;;20.70;57.00;;;;;;5033646;28;20048;-65
2023/06/18 07:21:23;;;;;;;8.18;7.38;;;20.80;56.90;;;;;;5033912;28;20501;-65
2023/06/18 07:23:49;;;;;;;8.48;7.57;;;21.00;56.70;;;;;;5035890;28;20041;-65
2023/06/18 07:26:15;;;;;;;8.15;7.28;;;21.00;56.50;;;;;;5034336;28;20036;-64
2023/06/18 07:28:40;;;;;;;7.30;6.60;;;21.20;56.10;;;;;;5034313;28;20064;-65
2023/06/18 07:31:06;;;;;;;7.80;6.68;;;21.30;55.70;;;;;;5035669;28;20048;-65
2023/06/18 07:33:31;;;;;;;8.45;6.68;;;21.40;55.20;;;;;;5033614;28;20124;-64
2023/06/18 07:35:57;;;;;;;7.72;6.90;;;21.50;55.00;;;;;;5035108;28;20029;-65
2023/06/18 07:38:22;;;;;;;8.43;6.40;;;21.60;54.70;;;;;;5033129;28;20039;-65
2023/06/18 07:40:48;;;;;;;7.05;6.40;;;21.80;54.40;;;;;;5032930;28;20049;-65
2023/06/18 07:43:14;;;;;;;7.72;6.68;;;21.90;54.00;;;;;;5032895;28;20060;-65
2023/06/18 07:45:40;;;;;;;8.30;6.38;;;22.00;53.60;;;;;;5034381;28;20363;-64
2023/06/18 07:48:07;;;;;;;10.23;6.35;;;22.20;53.60;;;;;;5033206;28;20033;-65
2023/06/18 07:50:33;;;;;;;7.40;6.70;;;22.30;53.40;;;;;;5034406;28;20029;-65
2023/06/18 07:52:59;;;;;;;6.35;5.70;;;22.40;53.20;;;;;;5033527;28;20052;-64
2023/06/18 07:55:24;;;;;;;6.75;6.05;;;22.60;52.90;;;;;;5033942;28;20045;-63
2023/06/18 07:57:50;;;;;;;6.72;6.05;;;22.70;52.60;;;;;;5034304;28;20118;-65
2023/06/18 08:00:16;;;;;;;8.07;5.63;;;22.80;52.20;;;;;;5033694;28;20056;-65
2023/06/18 08:02:42;;;;;;;7.70;6.72;;;23.00;51.50;;;;;;5033362;28;21313;-63
2023/06/18 08:05:08;;;;;;;6.53;5.82;;;23.10;51.00;;;;;;5033348;28;20040;-64
2023/06/18 08:07:34;;;;;;;6.35;5.75;;;23.20;50.90;;;;;;5035422;28;20431;-65
2023/06/18 08:09:59;;;;;;;5.90;5.32;;;23.30;50.20;;;;;;5034119;28;20037;-64
2023/06/18 08:12:25;;;;;;;8.02;5.55;;;23.40;50.10;;;;;;5031722;28;20025;-64
2023/06/18 08:14:51;;;;;;;5.82;5.18;;;23.60;50.00;;;;;;5032689;28;20087;-64
2023/06/18 08:17:17;;;;;;;6.60;4.90;;;23.70;50.00;;;;;;5032787;28;20044;-64
2023/06/18 08:19:46;;;;;;;5.82;5.28;;;23.80;49.80;;;;;;5033753;28;20096;-65
2023/06/18 08:22:12;;;;;;;5.55;4.95;;;24.00;49.70;;;;;;5035028;28;20040;-64
2023/06/18 08:24:38;;;;;;;5.32;4.90;;;24.10;49.60;;;;;;5037556;28;20029;-65
2023/06/18 08:27:04;;;;;;;6.78;5.10;;;24.30;49.00;;;;;;5038839;28;20052;-62
2023/06/18 08:29:29;;;;;;;5.40;4.90;;;24.40;48.60;;;;;;5039238;28;20111;-64
2023/06/18 08:31:56;;;;;;;5.18;4.75;;;24.50;48.10;;;;;;5036784;28;20676;-64
2023/06/18 08:34:21;;;;;;;5.78;4.63;;;24.70;48.00;;;;;;5037647;28;20038;-64
2023/06/18 08:36:49;;;;;;;4.90;4.50;;;24.80;47.60;;;;;;5036881;28;20041;-64
2023/06/18 08:39:15;;;;;;;4.82;4.20;;;24.90;47.00;;;;;;5038219;28;20555;-64
2023/06/18 08:41:45;;;;;;;4.78;4.38;;;25.00;46.80;;;;;;5036837;28;20045;-65
2023/06/18 08:44:10;;;;;;;6.45;4.97;;;25.20;46.00;;;;;;5038410;28;20041;-64
2023/06/18 08:46:36;;;;;;;5.10;4.70;;;25.30;46.00;;;;;;5039021;28;20084;-64
2023/06/18 08:49:02;;;;;;;5.00;4.50;;;25.40;46.00;;;;;;5036277;28;20131;-65
2023/06/18 08:51:28;;;;;;;6.82;4.45;;;25.60;45.80;;;;;;5036901;28;20436;-65
2023/06/18 08:54:09;;;;;;;5.30;4.43;;;25.70;45.70;;;;;;5036359;28;20046;-65
2023/06/18 08:56:43;;;;;;;4.95;4.43;;;25.80;44.90;;;;;;5036983;28;20176;-65
2023/06/18 08:59:10;;;;;;;5.72;4.78;;;26.00;44.60;;;;;;5035939;28;20409;-64
2023/06/18 09:01:37;;;;;;;4.97;4.57;;;26.10;44.90;;;;;;5036801;28;20072;-64
2023/06/18 09:04:02;;;;;;;5.18;4.57;;;26.20;45.10;;;;;;5036396;28;20331;-64
2023/06/18 09:06:29;;;;;;;4.40;3.90;;;26.40;44.50;;;;;;5035560;28;20523;-64
2023/06/18 09:08:56;;;;;;;5.15;4.38;;;26.50;44.30;;;;;;5037436;28;20033;-64
2023/06/18 09:11:22;;;;;;;4.80;4.40;;;26.60;43.90;;;;;;5036289;28;20152;-64
2023/06/18 09:13:48;;;;;;;5.22;4.70;;;26.80;43.70;;;;;;5036914;28;20120;-64
2023/06/18 09:16:13;;;;;;;4.63;4.13;;;26.90;43.50;;;;;;5034422;28;20028;-64
2023/06/18 09:18:39;;;;;;;5.35;4.57;;;27.00;42.90;;;;;;5037107;28;20037;-64
2023/06/18 09:21:05;;;;;;;5.30;4.30;;;27.10;42.60;;;;;;5036233;28;20132;-64
2023/06/18 09:23:31;;;;;;;4.53;4.13;;;27.30;42.40;;;;;;5037575;28;20485;-64
2023/06/18 09:25:58;;;;;;;5.50;4.22;;;27.40;42.00;;;;;;5037507;28;20071;-64
2023/06/18 09:28:27;;;;;;;4.90;4.30;;;27.50;41.60;;;;;;5035774;28;20030;-64
2023/06/18 09:30:56;;;;;;;4.72;4.32;;;27.60;41.40;;;;;;5036380;28;20099;-64
2023/06/18 09:33:36;;;;;;;4.70;4.30;;;27.70;40.70;;;;;;5035501;28;20118;-64
2023/06/18 09:36:06;;;;;;;4.80;4.30;;;27.80;39.90;;;;;;5037211;28;20090;-64
2023/06/18 09:38:36;;;;;;;4.95;4.47;;;27.90;40.30;;;;;;5036102;28;20405;-65
2023/06/18 09:41:09;;;;;;;5.07;4.57;;;28.00;40.20;;;;;;5035348;28;20382;-64
2023/06/18 09:43:36;;;;;;;4.30;4.00;;;28.10;40.20;;;;;;5035857;28;20042;-64
2023/06/18 09:46:08;;;;;;;4.95;4.47;;;28.30;40.60;;;;;;5036146;28;20036;-63
2023/06/18 09:48:39;;;;;;;4.70;4.30;;;28.40;39.80;;;;;;5036582;28;20233;-64
2023/06/18 09:51:05;;;;;;;4.55;4.15;;;28.40;39.40;;;;;;5035739;28;20041;-64
2023/06/18 09:53:32;;;;;;;5.47;4.85;;;28.50;40.00;;;;;;5037419;28;20037;-65
2023/06/18 09:56:26;;;;;;;4.80;4.40;;;28.70;40.00;;;;;;5036449;28;20556;-64
2023/06/18 09:58:52;;;;;;;5.13;4.70;;;28.80;38.10;;;;;;5030588;28;20176;-64
2023/06/18 10:01:19;;;;;;;4.88;4.47;;;28.80;39.20;;;;;;5036672;28;20034;-65
2023/06/18 10:03:46;;;;;;;5.55;4.45;;;28.90;38.80;;;;;;5035214;28;20532;-65
2023/06/18 10:06:16;;;;;;;4.60;4.20;;;29.00;38.90;;;;;;5035064;28;20037;-64
2023/06/18 10:08:47;;;;;;;5.05;4.22;;;29.10;39.00;;;;;;5035234;28;20358;-64
2023/06/18 10:11:14;;;;;;;4.90;4.18;;;29.10;38.40;;;;;;5033883;28;20413;-65
2023/06/18 10:13:48;;;;;;;4.63;4.22;;;29.20;38.40;;;;;;5036621;28;20037;-64
2023/06/18 10:16:18;;;;;;;4.60;4.25;;;29.30;36.50;;;;;;5035456;28;20049;-64
2023/06/18 10:19:04;;;;;;;6.47;4.32;;;29.40;36.60;;;;;;5032270;28;20064;-64
2023/06/18 10:21:33;;;;;;;4.38;3.97;;;29.50;36.10;;;;;;5025164;28;20036;-65
2023/06/18 10:24:13;;;;;;;4.22;3.92;;;29.50;36.50;;;;;;5036062;28;20037;-64
2023/06/18 10:26:40;;;;;;;4.50;4.10;;;29.60;36.10;;;;;;5034990;28;20044;-65
2023/06/18 10:29:06;;;;;;;4.55;4.00;;;29.60;36.30;;;;;;5034336;28;20393;-64
2023/06/18 10:31:32;;;;;;;5.18;4.30;;;29.70;35.50;;;;;;5035210;28;20041;-65
2023/06/18 10:33:59;;;;;;;5.32;3.78;;;29.70;34.90;;;;;;5034755;28;20476;-64
2023/06/18 10:36:25;;;;;;;3.95;3.65;;;29.70;34.50;;;;;;5035640;28;20510;-64
2023/06/18 10:38:51;;;;;;;4.20;3.90;;;29.80;34.10;;;;;;5036431;28;20408;-65
2023/06/18 10:41:20;;;;;;;4.72;3.72;;;29.80;34.10;;;;;;5036005;28;20472;-65
2023/06/18 10:43:53;;;;;;;5.28;4.00;;;29.80;33.70;;;;;;5033748;28;20048;-65
2023/06/18 10:46:21;;;;;;;4.07;3.75;;;29.80;33.90;;;;;;5032827;28;20540;-64
2023/06/18 10:49:13;;;;;;;4.25;3.95;;;29.80;34.60;;;;;;5036231;28;20815;-65
2023/06/18 10:51:39;;;;;;;4.43;3.80;;;29.80;34.30;;;;;;5036533;28;20033;-64
2023/06/18 10:54:21;;;;;;;4.10;3.80;;;29.90;35.10;;;;;;5037827;28;20025;-65
2023/06/18 10:56:54;;;;;;;4.35;4.03;;;29.90;33.80;;;;;;5037515;28;20037;-65
2023/06/18 10:59:43;;;;;;;4.55;3.95;;;30.00;33.50;;;;;;5038030;28;20025;-65
2023/06/18 11:02:12;;;;;;;4.25;3.95;;;30.10;33.50;;;;;;5037293;28;20025;-65
2023/06/18 11:04:38;;;;;;;4.63;4.22;;;30.00;33.70;;;;;;5032774;28;20034;-64
2023/06/18 11:07:14;;;;;;;4.25;3.85;;;30.00;33.10;;;;;;5036601;28;20037;-65
2023/06/18 11:09:57;;;;;;;4.95;3.70;;;30.00;32.90;;;;;;5037946;28;20634;-64
2023/06/18 11:12:25;;;;;;;4.10;3.75;;;29.90;33.60;;;;;;5032931;28;20092;-64
2023/06/18 11:15:16;;;;;;;4.15;3.80;;;29.90;33.70;;;;;;5032218;28;20049;-65
2023/06/18 11:17:48;;;;;;;4.22;3.83;;;29.90;34.10;;;;;;5034108;28;20071;-64
2023/06/18 11:20:14;;;;;;;4.18;3.88;;;30.00;34.00;;;;;;5037199;28;20471;-64
2023/06/18 11:22:41;;;;;;;4.72;3.53;;;30.10;33.60;;;;;;5035183;28;20160;-65
2023/06/18 11:25:12;;;;;;;4.53;4.00;;;30.10;33.00;;;;;;5036492;28;20033;-65
2023/06/18 11:27:44;;;;;;;5.50;4.10;;;30.10;33.30;;;;;;5034209;28;20041;-64
2023/06/18 11:30:11;;;;;;;4.18;3.88;;;30.10;32.90;;;;;;5035750;28;20078;-64
2023/06/18 11:32:39;;;;;;;6.43;4.10;;;30.20;33.50;;;;;;5032115;28;20029;-64
2023/06/18 11:35:08;;;;;;;4.35;3.95;;;30.20;33.40;;;;;;5034921;28;20047;-65
2023/06/18 11:37:35;;;;;;;4.72;3.53;;;30.30;33.30;;;;;;5034617;28;20497;-65
2023/06/18 11:40:02;;;;;;;4.22;3.92;;;30.40;33.70;;;;;;5036000;28;20168;-65
2023/06/18 11:42:28;;;;;;;4.22;3.83;;;30.50;33.50;;;;;;5037234;28;20120;-65
2023/06/18 11:44:57;;;;;;;3.80;3.50;;;30.60;33.20;;;;;;5035390;28;20446;-64
2023/06/18 11:47:23;;;;;;;4.10;3.80;;;30.60;33.10;;;;;;5036968;28;20044;-64
2023/06/18 11:49:51;;;;;;;4.68;3.85;;;30.70;32.90;;;;;;5036518;28;20037;-65
2023/06/18 11:52:19;;;;;;;4.63;3.70;;;30.80;32.30;;;;;;5035614;28;20291;-65
2023/06/18 11:54:45;;;;;;;3.80;3.50;;;30.80;32.40;;;;;;5030883;28;20432;-65
2023/06/18 11:57:12;;;;;;;4.07;3.63;;;30.90;32.70;;;;;;5034375;28;20116;-65
2023/06/18 11:59:45;;;;;;;4.20;3.80;;;30.90;32.50;;;;;;5033641;28;20029;-64
2023/06/18 12:02:16;;;;;;;4.22;3.92;;;31.00;32.30;;;;;;5034583;28;20060;-65
2023/06/18 12:04:45;;;;;;;4.38;4.00;;;31.10;32.20;;;;;;5032994;28;20026;-64
2023/06/18 12:07:19;;;;;;;8.10;3.88;;;31.10;32.00;;;;;;5035200;28;20034;-65
2023/06/18 12:09:46;;;;;;;5.22;3.67;;;31.10;32.30;;;;;;5033796;28;20079;-64
2023/06/18 12:12:30;;;;;;;4.18;3.65;;;31.10;32.50;;;;;;5031075;28;20041;-64
2023/06/18 12:15:08;;;;;;;;;;;31.10;32.30;;;;;;5033274;28;20044;-65
2023/06/18 12:17:50;;;;;;;4.25;3.42;;;31.10;32.40;;;;;;5031296;28;19913;-65
2023/06/18 12:20:18;;;;;;;4.22;3.92;;;31.20;32.30;;;;;;5032566;28;20060;-64
2023/06/18 12:22:45;;;;;;;5.18;3.75;;;31.20;32.10;;;;;;5033350;28;20064;-65
2023/06/18 12:25:11;;;;;;;4.32;4.03;;;31.20;32.90;;;;;;5034133;28;20034;-65
2023/06/18 12:27:39;;;;;;;3.95;3.65;;;31.30;31.90;;;;;;5034914;28;20029;-64
2023/06/18 12:30:06;;;;;;;4.20;3.80;;;31.30;31.60;;;;;;5033207;28;20033;-65
2023/06/18 12:32:33;;;;;;;3.75;3.45;;;31.30;31.50;;;;;;5034705;28;20033;-65
2023/06/18 12:35:12;;;;;;;5.15;4.20;;;31.30;31.40;;;;;;5033695;28;20048;-65
2023/06/18 12:37:41;;;;;;;4.10;3.70;;;31.30;30.30;;;;;;5034009;28;20036;-64
2023/06/18 12:40:22;;;;;;;4.10;3.70;;;31.20;31.20;;;;;;5034991;28;20044;-64
2023/06/18 12:42:48;;;;;;;4.32;3.92;;;31.20;31.60;;;;;;5032558;28;20120;-65
2023/06/18 12:45:15;;;;;;;3.72;3.50;;;31.20;32.20;;;;;;5034315;28;20037;-65
2023/06/18 12:47:45;;;;;;;4.00;3.53;;;31.20;32.40;;;;;;5032867;28;20491;-65